McLean, Nebraska
Current Conditions -  °F | °C
As of 4:55 PM on Saturday 25 Oct 2014 (Local Time) from KLCG Reporting Station
Haze Haze  
Wind Chill: 70°   Ceiling: 700
Heat Index: 70°   Visibility: 1.5mi
Dew Point: 32°   Wind: 7mph
Humidity: 24%   Direction: 90°E
Pressure: 30.08"   Gusts: NA
Location:  42.39°N, 97.47°W
Report Text: KLCG 252155Z AUTO 09006KT 1 1/2SM HZ VV007 21/00 A3008 RMK AO2 T02120000
Loading
Personal Weather Stations






























Interactive Weather Map
Tropical Storm Tracking
New forecast layout! Learn more

10-Day Weather Forecast

Advertisements
Track Severe Weather on mobile